Search for airport 
image banner adimage banner adimage banner ad
image banner ad

KSTS - Charles M Schulz - Sonoma County

Located in Santa Rosa, United States

ICAO - STS, IATA - STS

Data provided by Airmate  

General information

Coordinates: N38°30'35" W122°48'46"
Elevation is 129 feet MSL.
Magnetic variation is 16° East
View others Airports in California

Operational data

Special qualification required
Current time UTC:
Current local time:
Weather
METAR: KSTS 211253Z AUTO 20003KT 10SM OVC009 13/11 A2991 RMK AO2 SLP123 T01280111
TAF: KSTS 211139Z 2112/2212 VRB05KT P6SM OVC009 FM211630 18005KT P6SM SCT010 FM211900 18011KT P6SM SCT250 FM220300 17005KT P6SM SCT020 FM220600 VRB03KT P6SM BKN009
View NOTAMs / SUP AIP / TFR affecting this airport [VIEW]
Communications frequencies: [VIEW]

Runways:

RWY identifierQFULength (ft)Width (ft)SurfaceLDA (ft)
14157°6000150ASPH5880
32337°6000150ASPH6000
0229°5202100ASPH4802
20209°5202100ASPH5202

Airport contact information

Address: Santa Rosa United States

Other aviation service providers

Flight schools

North Coast Air, Inc.

North Coast Air, Inc.
info@northcoastair.com+1(707)542-8687

Ram Aviation

Ram Aviation
rob@ramaviation.com+1(707)479-5969

Aircraft Simulator Training

Aircraft Simulator Training

Satellite view of KSTS